Time;durP1;ratioP1;P1;durP2;ratioP2;P2;SDS_P1;SDS_P2;PMS_P1;PMS_P2;Temp;Humidity;BMP_temperature;BMP_pressure;BME280_temperature;BME280_humidity;BME280_pressure;Samples;Min_cycle;Max_cycle;Signal;HPM_P1;HPM_P2
2023/08/02 00:02:15;;;;;;;4.63;0.50;;;23.00;99.90;;;;;;4975426;28;20226;-67
2023/08/02 00:04:41;;;;;;;0.52;0.40;;;23.00;99.90;;;;;;4979258;28;20185;-67
2023/08/02 00:07:07;;;;;;;3.53;0.60;;;23.00;99.90;;;;;;4977376;28;20655;-68
2023/08/02 00:09:34;;;;;;;2.55;0.80;;;23.10;99.90;;;;;;4973378;28;20193;-67
2023/08/02 00:12:00;;;;;;;1.38;0.40;;;23.10;99.90;;;;;;4979975;28;20210;-67
2023/08/02 00:14:26;;;;;;;4.78;0.50;;;23.00;99.90;;;;;;4973435;28;20232;-66
2023/08/02 00:16:52;;;;;;;2.63;0.40;;;23.00;99.90;;;;;;4976029;28;20702;-67
2023/08/02 00:19:18;;;;;;;0.90;0.40;;;23.00;99.90;;;;;;4981334;28;20272;-67
2023/08/02 00:21:44;;;;;;;1.50;0.50;;;23.00;99.90;;;;;;4975737;28;20304;-67
2023/08/02 00:24:10;;;;;;;1.58;0.50;;;23.00;99.90;;;;;;4973213;28;20189;-67
2023/08/02 00:26:36;;;;;;;0.88;0.50;;;23.00;99.90;;;;;;4975319;28;20620;-68
2023/08/02 00:29:03;;;;;;;0.68;0.40;;;23.00;99.90;;;;;;4976637;28;20272;-68
2023/08/02 00:31:28;;;;;;;1.23;0.50;;;23.00;99.90;;;;;;4974397;28;20915;-68
2023/08/02 00:33:54;;;;;;;1.38;0.40;;;23.00;99.90;;;;;;4975792;28;20189;-67
2023/08/02 00:36:20;;;;;;;2.58;0.40;;;23.00;99.90;;;;;;4974322;28;20606;-67
2023/08/02 00:38:46;;;;;;;0.65;0.40;;;23.00;99.90;;;;;;4973443;28;20209;-66
2023/08/02 00:41:12;;;;;;;1.20;0.57;;;23.00;99.90;;;;;;4974444;28;20237;-66
2023/08/02 00:43:46;;;;;;;1.48;0.60;;;23.00;99.90;;;;;;4988028;28;20221;-66
2023/08/02 00:46:17;;;;;;;1.17;0.50;;;23.00;99.90;;;;;;5001390;28;20185;-66
2023/08/02 00:48:45;;;;;;;0.50;0.50;;;23.00;99.90;;;;;;4973400;28;20200;-66
2023/08/02 00:51:14;;;;;;;1.17;0.60;;;23.00;99.90;;;;;;4972731;28;20177;-67
2023/08/02 00:53:40;;;;;;;0.57;0.50;;;23.00;99.90;;;;;;4985148;28;20215;-67
2023/08/02 00:56:06;;;;;;;0.95;0.40;;;23.00;99.90;;;;;;4975707;28;20527;-67
2023/08/02 00:58:32;;;;;;;0.57;0.40;;;23.00;99.90;;;;;;4971136;28;20277;-67
2023/08/02 01:01:07;;;;;;;1.05;0.60;;;23.00;99.90;;;;;;4975002;28;20311;-67
2023/08/02 01:03:44;;;;;;;1.15;0.50;;;23.00;99.90;;;;;;4974717;28;20213;-67
2023/08/02 01:06:31;;;;;;;1.35;0.60;;;23.00;99.90;;;;;;4980373;28;20200;-66
2023/08/02 01:09:14;;;;;;;0.80;0.43;;;22.90;99.90;;;;;;4976828;28;20174;-66
2023/08/02 01:11:55;;;;;;;1.25;0.47;;;23.00;99.90;;;;;;4982295;28;20785;-66
2023/08/02 01:14:21;;;;;;;0.73;0.52;;;22.90;99.90;;;;;;4976696;28;20185;-66
2023/08/02 01:16:50;;;;;;;0.73;0.43;;;22.90;99.90;;;;;;4987125;28;20190;-66
2023/08/02 01:19:21;;;;;;;1.23;0.50;;;22.90;99.90;;;;;;4980874;28;20189;-65
2023/08/02 01:21:48;;;;;;;2.40;0.60;;;22.90;99.90;;;;;;4977246;28;20272;-65
2023/08/02 01:24:14;;;;;;;0.77;0.60;;;22.90;99.90;;;;;;4976354;28;20209;-65
2023/08/02 01:26:45;;;;;;;1.45;0.60;;;23.00;99.90;;;;;;4989694;28;20190;-65
2023/08/02 01:29:22;;;;;;;0.93;0.63;;;22.90;99.90;;;;;;4983389;28;20650;-65
2023/08/02 01:31:49;;;;;;;1.15;0.60;;;22.90;99.90;;;;;;4969771;28;20225;-65
2023/08/02 01:34:17;;;;;;;1.13;0.50;;;22.90;99.90;;;;;;4975323;28;20265;-66
2023/08/02 01:36:43;;;;;;;1.85;0.52;;;22.90;99.90;;;;;;4977970;28;20213;-65
2023/08/02 01:39:10;;;;;;;1.13;0.60;;;22.90;99.90;;;;;;4976030;28;20248;-65
2023/08/02 01:41:36;;;;;;;0.68;0.47;;;22.90;99.90;;;;;;4965473;28;20292;-65
2023/08/02 01:44:02;;;;;;;1.60;0.70;;;22.90;99.90;;;;;;4975982;28;20269;-66
2023/08/02 01:46:27;;;;;;;0.77;0.50;;;22.90;99.90;;;;;;4974383;28;20246;-65
2023/08/02 01:48:53;;;;;;;0.93;0.45;;;22.90;99.90;;;;;;4987486;28;20189;-66
2023/08/02 01:51:19;;;;;;;0.93;0.60;;;22.90;99.90;;;;;;4995889;28;20287;-66
2023/08/02 01:53:44;;;;;;;1.00;0.50;;;22.90;99.90;;;;;;4986527;28;20228;-66
2023/08/02 01:56:10;;;;;;;4.07;0.60;;;22.90;99.90;;;;;;4965866;28;20550;-65
2023/08/02 01:58:36;;;;;;;0.60;0.50;;;22.90;99.90;;;;;;4980017;28;20725;-65
2023/08/02 02:01:02;;;;;;;6.13;0.80;;;22.90;99.90;;;;;;4990172;28;20213;-65
2023/08/02 02:03:27;;;;;;;1.25;0.60;;;22.90;99.90;;;;;;4984880;28;20550;-65
2023/08/02 02:05:54;;;;;;;1.70;0.60;;;22.90;99.90;;;;;;4990012;28;20191;-65
2023/08/02 02:08:20;;;;;;;0.93;0.60;;;22.90;99.90;;;;;;4984349;28;20634;-65
2023/08/02 02:10:54;;;;;;;2.05;0.68;;;22.90;99.90;;;;;;4975562;28;20205;-65
2023/08/02 02:13:22;;;;;;;1.27;0.70;;;22.90;99.90;;;;;;4972888;28;20181;-66
2023/08/02 02:15:47;;;;;;;1.02;0.60;;;22.90;99.90;;;;;;4957610;28;20190;-66
2023/08/02 02:18:13;;;;;;;0.95;0.60;;;22.90;99.90;;;;;;4982331;28;20181;-66
2023/08/02 02:20:39;;;;;;;0.50;0.50;;;22.90;99.90;;;;;;4989134;28;20236;-67
2023/08/02 02:23:05;;;;;;;1.05;0.60;;;22.90;99.90;;;;;;4975486;28;20186;-66
2023/08/02 02:25:31;;;;;;;0.70;0.60;;;22.90;99.90;;;;;;4975065;28;20276;-65
2023/08/02 02:27:57;;;;;;;1.38;0.70;;;22.90;99.90;;;;;;4978093;28;20273;-65
2023/08/02 02:30:23;;;;;;;0.77;0.65;;;22.90;99.90;;;;;;4975592;28;20694;-65
2023/08/02 02:32:48;;;;;;;2.78;0.60;;;22.90;99.90;;;;;;4977724;28;21338;-66
2023/08/02 02:35:14;;;;;;;4.80;0.70;;;22.90;99.90;;;;;;4975284;28;20194;-67
2023/08/02 02:37:41;;;;;;;5.85;0.70;;;22.90;99.90;;;;;;4976765;28;20236;-66
2023/08/02 02:40:08;;;;;;;0.85;0.60;;;22.90;99.90;;;;;;4985484;28;20217;-66
2023/08/02 02:42:37;;;;;;;1.10;0.60;;;22.90;99.90;;;;;;4974543;28;20243;-66
2023/08/02 02:45:04;;;;;;;3.78;0.63;;;22.90;99.90;;;;;;4975200;28;20273;-66
2023/08/02 02:47:30;;;;;;;2.65;0.60;;;22.90;99.90;;;;;;4976958;28;20198;-66
2023/08/02 02:49:56;;;;;;;1.50;0.75;;;22.90;99.90;;;;;;4974628;28;20653;-66
2023/08/02 02:52:22;;;;;;;1.60;0.77;;;22.90;99.90;;;;;;4978510;28;20189;-65
2023/08/02 02:54:48;;;;;;;3.15;0.57;;;22.90;99.90;;;;;;4984334;28;20182;-65
2023/08/02 02:57:15;;;;;;;1.25;0.70;;;22.90;99.90;;;;;;4966928;28;20196;-65
2023/08/02 02:59:41;;;;;;;2.17;0.80;;;22.90;99.90;;;;;;4974928;28;20213;-66
2023/08/02 03:02:06;;;;;;;1.33;0.60;;;22.90;99.90;;;;;;4977617;28;20194;-66
2023/08/02 03:04:32;;;;;;;1.30;0.70;;;22.90;99.90;;;;;;4973548;28;20217;-65
2023/08/02 03:06:58;;;;;;;2.35;0.80;;;22.90;99.90;;;;;;4977577;28;20212;-65
2023/08/02 03:09:23;;;;;;;2.10;0.70;;;22.90;99.90;;;;;;4980100;28;20198;-68
2023/08/02 03:11:49;;;;;;;1.38;0.85;;;22.90;99.90;;;;;;4983458;28;20182;-65
2023/08/02 03:14:15;;;;;;;1.85;0.70;;;22.90;99.90;;;;;;4978495;28;20659;-64
2023/08/02 03:16:43;;;;;;;1.48;0.82;;;22.90;99.90;;;;;;4976063;28;20193;-64
2023/08/02 03:19:10;;;;;;;1.40;0.80;;;22.90;99.90;;;;;;4976431;28;20189;-64
2023/08/02 03:21:36;;;;;;;2.17;0.85;;;22.90;99.90;;;;;;4979237;28;20276;-64
2023/08/02 03:24:02;;;;;;;1.38;0.70;;;22.90;99.90;;;;;;5008953;28;20193;-65
2023/08/02 03:26:28;;;;;;;1.77;0.80;;;22.90;99.90;;;;;;4975443;28;20800;-67
2023/08/02 03:28:54;;;;;;;0.93;0.70;;;22.90;99.90;;;;;;4983461;28;20182;-67
2023/08/02 03:31:20;;;;;;;3.28;0.80;;;22.90;99.90;;;;;;4977526;28;20284;-68
2023/08/02 03:33:45;;;;;;;2.60;1.02;;;22.90;99.90;;;;;;4974863;28;20178;-67
2023/08/02 03:36:11;;;;;;;2.03;0.90;;;22.90;99.90;;;;;;4975812;28;20189;-68
2023/08/02 03:38:37;;;;;;;1.42;0.77;;;22.90;99.90;;;;;;4973902;28;20272;-66
2023/08/02 03:41:03;;;;;;;2.58;0.80;;;22.90;99.90;;;;;;4978273;28;20222;-65
2023/08/02 03:43:29;;;;;;;1.60;0.75;;;22.90;99.90;;;;;;4972963;28;20186;-66
2023/08/02 03:45:54;;;;;;;1.52;0.70;;;22.90;99.90;;;;;;4980033;28;20182;-66
2023/08/02 03:48:20;;;;;;;1.85;0.75;;;22.90;99.90;;;;;;4973797;28;20210;-66
2023/08/02 03:50:46;;;;;;;3.03;0.93;;;22.90;99.90;;;;;;4974897;28;20550;-65
2023/08/02 03:53:12;;;;;;;1.42;0.70;;;22.90;99.90;;;;;;4973993;28;20710;-67
2023/08/02 03:55:37;;;;;;;2.80;1.00;;;22.90;99.90;;;;;;4974737;28;20200;-67
2023/08/02 03:58:04;;;;;;;2.85;0.88;;;22.90;99.90;;;;;;4973771;28;20270;-67
2023/08/02 04:00:30;;;;;;;4.25;0.80;;;22.90;99.90;;;;;;4972567;28;20217;-67
2023/08/02 04:02:56;;;;;;;3.28;0.80;;;22.90;99.90;;;;;;4972772;28;20197;-67
2023/08/02 04:05:22;;;;;;;2.03;0.80;;;22.90;99.90;;;;;;4972334;28;20190;-67
2023/08/02 04:07:47;;;;;;;1.73;0.80;;;22.90;99.90;;;;;;4972794;28;20256;-67
2023/08/02 04:10:13;;;;;;;6.75;1.17;;;22.90;99.90;;;;;;4976064;28;20741;-68
2023/08/02 04:12:39;;;;;;;8.07;0.80;;;22.90;99.90;;;;;;4981121;28;20182;-68
2023/08/02 04:15:05;;;;;;;2.35;1.10;;;22.90;99.90;;;;;;4974109;28;20547;-67
2023/08/02 04:17:31;;;;;;;4.70;1.00;;;22.90;99.90;;;;;;4972448;28;20190;-66
2023/08/02 04:19:58;;;;;;;1.83;0.80;;;22.90;99.90;;;;;;4975727;28;20689;-66
2023/08/02 04:22:24;;;;;;;1.17;0.80;;;22.90;99.90;;;;;;5003976;28;20240;-65
2023/08/02 04:24:50;;;;;;;3.28;1.13;;;22.90;99.90;;;;;;4975162;28;20552;-65
2023/08/02 04:27:16;;;;;;;2.58;0.82;;;22.90;99.90;;;;;;4972808;28;20284;-65
2023/08/02 04:29:41;;;;;;;2.22;0.90;;;22.90;99.90;;;;;;4975924;28;20607;-65
2023/08/02 04:32:07;;;;;;;2.75;1.00;;;22.90;99.90;;;;;;4975198;28;20762;-64
2023/08/02 04:34:33;;;;;;;3.25;1.05;;;22.90;99.90;;;;;;4972310;28;20182;-67
2023/08/02 04:36:58;;;;;;;4.15;0.93;;;22.90;99.90;;;;;;4989940;28;20569;-67
2023/08/02 04:39:24;;;;;;;2.63;1.10;;;22.90;99.90;;;;;;4977107;28;20182;-66
2023/08/02 04:41:54;;;;;;;1.67;0.82;;;22.90;99.90;;;;;;4984961;28;20279;-67
2023/08/02 04:44:20;;;;;;;2.13;1.08;;;22.90;99.90;;;;;;4976814;28;20622;-67
2023/08/02 04:46:46;;;;;;;3.22;1.00;;;22.90;99.90;;;;;;4976232;28;20192;-67
2023/08/02 04:49:12;;;;;;;2.55;1.00;;;23.00;99.90;;;;;;4976530;28;20266;-67
2023/08/02 04:51:38;;;;;;;2.17;0.93;;;23.00;99.90;;;;;;4984203;28;20202;-65
2023/08/02 04:54:04;;;;;;;1.50;0.93;;;23.00;99.90;;;;;;4977412;28;20192;-64
2023/08/02 04:56:30;;;;;;;1.98;1.10;;;23.00;99.90;;;;;;4976871;28;20236;-65
2023/08/02 04:58:57;;;;;;;2.30;1.00;;;23.00;99.90;;;;;;4975435;28;20257;-65
2023/08/02 05:01:23;;;;;;;10.55;1.00;;;23.00;99.90;;;;;;4976691;28;20206;-65
2023/08/02 05:03:49;;;;;;;3.38;0.93;;;23.00;99.90;;;;;;4976940;28;20554;-65
2023/08/02 05:06:15;;;;;;;2.47;1.00;;;23.00;99.90;;;;;;4985306;28;20201;-66
2023/08/02 05:08:40;;;;;;;4.18;1.08;;;23.10;99.90;;;;;;4975956;28;20257;-66
2023/08/02 05:11:07;;;;;;;1.80;0.95;;;23.10;99.90;;;;;;4979890;28;20283;-69
2023/08/02 05:13:33;;;;;;;3.05;1.20;;;23.10;99.90;;;;;;4977959;28;20178;-70
2023/08/02 05:15:59;;;;;;;1.65;1.00;;;23.10;99.90;;;;;;4983865;28;20178;-70
2023/08/02 05:18:25;;;;;;;2.83;1.35;;;23.20;99.90;;;;;;4975844;28;20194;-70
2023/08/02 05:20:51;;;;;;;4.18;1.20;;;23.20;99.90;;;;;;4978014;28;20229;-72
2023/08/02 05:23:17;;;;;;;2.67;1.25;;;23.20;99.90;;;;;;4983143;28;20189;-71
2023/08/02 05:25:43;;;;;;;2.45;1.10;;;23.20;99.90;;;;;;5005716;28;20244;-70
2023/08/02 05:28:09;;;;;;;4.95;1.40;;;23.20;99.90;;;;;;4976656;28;20186;-72
2023/08/02 05:30:36;;;;;;;4.38;1.40;;;23.20;99.90;;;;;;4990630;28;20585;-70
2023/08/02 05:33:03;;;;;;;3.50;1.20;;;23.20;99.90;;;;;;4974513;28;20201;-71
2023/08/02 05:35:30;;;;;;;1.58;0.95;;;23.20;99.90;;;;;;4980432;28;20200;-73
2023/08/02 05:37:56;;;;;;;2.08;1.10;;;23.30;99.90;;;;;;4979246;28;20245;-71
2023/08/02 05:40:22;;;;;;;2.53;1.10;;;23.30;99.90;;;;;;4975713;28;20210;-66
2023/08/02 05:42:48;;;;;;;2.67;1.25;;;23.30;99.90;;;;;;5006525;28;20204;-68
2023/08/02 05:45:15;;;;;;;3.92;1.55;;;23.30;99.90;;;;;;4981836;28;20190;-63
2023/08/02 05:47:40;;;;;;;13.15;1.65;;;23.30;99.90;;;;;;4974751;28;20186;-64
2023/08/02 05:50:07;;;;;;;3.22;1.30;;;23.40;99.90;;;;;;4976447;28;20218;-63
2023/08/02 05:52:33;;;;;;;3.30;1.30;;;23.40;99.90;;;;;;4975584;28;20201;-63
2023/08/02 05:54:59;;;;;;;21.33;4.60;;;23.40;99.90;;;;;;4975672;28;20204;-62
2023/08/02 05:57:24;;;;;;;9.50;3.95;;;23.40;99.90;;;;;;4981958;28;20190;-63
2023/08/02 05:59:51;;;;;;;13.20;4.50;;;23.30;99.90;;;;;;4984405;28;20217;-62
2023/08/02 06:02:17;;;;;;;12.60;4.20;;;23.00;99.90;;;;;;4973802;28;20198;-63
2023/08/02 06:04:44;;;;;;;11.88;4.85;;;22.70;99.90;;;;;;4977562;28;20188;-64
2023/08/02 06:07:10;;;;;;;11.55;4.53;;;22.40;99.90;;;;;;4985397;28;20186;-63
2023/08/02 06:09:37;;;;;;;11.02;4.03;;;22.20;99.90;;;;;;4978159;28;20256;-62
2023/08/02 06:12:03;;;;;;;11.75;4.70;;;21.90;99.90;;;;;;4976546;28;20182;-64
2023/08/02 06:14:29;;;;;;;12.10;4.95;;;21.80;99.90;;;;;;4979212;28;20320;-64
2023/08/02 06:16:55;;;;;;;10.30;4.15;;;21.60;99.90;;;;;;4982835;28;20273;-62
2023/08/02 06:19:20;;;;;;;8.90;4.28;;;21.50;99.90;;;;;;4975999;28;20182;-65
2023/08/02 06:21:46;;;;;;;11.65;4.70;;;21.40;99.90;;;;;;4979367;28;20475;-64
2023/08/02 06:24:12;;;;;;;11.10;4.43;;;21.30;99.90;;;;;;4975005;28;20190;-65
2023/08/02 06:26:38;;;;;;;12.40;3.50;;;21.30;99.90;;;;;;4975814;28;20195;-70
2023/08/02 06:29:06;;;;;;;5.78;2.35;;;21.30;99.90;;;;;;4977675;28;20639;-67
2023/08/02 06:31:32;;;;;;;11.00;4.70;;;21.40;99.90;;;;;;4979806;28;20273;-69
2023/08/02 06:33:58;;;;;;;5.50;2.85;;;21.60;99.90;;;;;;4982303;28;20755;-66
2023/08/02 06:36:24;;;;;;;10.68;4.15;;;21.70;99.90;;;;;;4977907;28;20178;-73
2023/08/02 06:38:49;;;;;;;9.88;4.25;;;21.90;99.90;;;;;;4975972;28;20194;-69
2023/08/02 06:41:15;;;;;;;8.55;4.13;;;22.00;99.90;;;;;;4960196;28;20619;-71
2023/08/02 06:43:41;;;;;;;10.77;3.67;;;22.10;99.90;;;;;;4974494;28;20634;-67
2023/08/02 07:03:01;;;;;;;6.97;4.20;;;22.20;99.90;;;;;;5041398;28;21183;-64
2023/08/02 07:05:28;;;;;;;7.20;3.33;;;22.20;99.90;;;;;;5024732;28;20180;-65
2023/08/02 07:07:59;;;;;;;8.20;3.97;;;22.30;99.90;;;;;;5046009;28;20195;-64
2023/08/02 07:10:27;;;;;;;13.15;4.78;;;22.40;99.90;;;;;;5040027;28;20210;-67
2023/08/02 07:12:53;;;;;;;12.07;5.13;;;22.50;99.90;;;;;;5044469;28;20214;-67
2023/08/02 07:15:19;;;;;;;10.60;4.80;;;22.60;99.90;;;;;;4989146;28;20244;-69
2023/08/02 07:17:46;;;;;;;10.00;4.55;;;22.70;99.90;;;;;;4934459;28;128013;-68
2023/08/02 07:20:12;;;;;;;10.23;4.28;;;22.70;99.90;;;;;;4978591;28;20196;-70
2023/08/02 07:22:40;;;;;;;7.75;3.88;;;22.70;99.90;;;;;;4983955;28;20679;-69
2023/08/02 07:25:06;;;;;;;10.65;5.63;;;22.80;99.90;;;;;;4981550;28;20204;-70
2023/08/02 07:27:33;;;;;;;11.45;5.82;;;22.80;99.90;;;;;;4985787;28;20224;-69
2023/08/02 07:29:59;;;;;;;8.93;4.20;;;22.80;99.90;;;;;;4976380;28;102156;-70
2023/08/02 07:32:25;;;;;;;15.25;4.40;;;22.80;99.90;;;;;;4979447;28;20241;-72
2023/08/02 07:34:52;;;;;;;7.95;4.60;;;22.80;99.90;;;;;;4981557;28;20638;-69
2023/08/02 07:37:18;;;;;;;8.40;3.70;;;22.80;99.90;;;;;;4986180;28;20217;-71
2023/08/02 07:39:44;;;;;;;12.68;6.72;;;22.80;99.90;;;;;;4985744;28;20686;-71
2023/08/02 07:42:10;;;;;;;14.80;7.25;;;22.80;99.90;;;;;;4989069;28;20224;-69
2023/08/02 07:44:37;;;;;;;12.88;5.60;;;22.80;99.90;;;;;;4988230;28;20190;-70
2023/08/02 07:47:04;;;;;;;9.15;4.03;;;22.80;99.90;;;;;;4965719;28;20839;-67
2023/08/02 07:49:33;;;;;;;23.08;14.75;;;22.80;99.90;;;;;;4980226;28;20188;-70
2023/08/02 07:51:59;;;;;;;10.77;5.25;;;22.70;99.90;;;;;;4988451;28;20213;-70
2023/08/02 07:54:25;;;;;;;19.33;10.20;;;22.70;99.90;;;;;;5003623;28;20227;-69
2023/08/02 07:56:51;;;;;;;7.03;3.88;;;22.70;99.90;;;;;;4986734;28;20225;-70
2023/08/02 07:59:17;;;;;;;15.73;7.90;;;22.70;99.90;;;;;;5003930;28;20701;-70
2023/08/02 08:01:43;;;;;;;8.32;3.83;;;22.70;99.90;;;;;;4985670;28;20221;-71
2023/08/02 08:04:09;;;;;;;7.80;4.25;;;22.70;99.90;;;;;;4985492;28;20211;-68
2023/08/02 08:06:36;;;;;;;6.72;4.30;;;22.70;99.90;;;;;;4987475;28;20189;-69
2023/08/02 08:09:01;;;;;;;8.90;3.67;;;22.70;99.90;;;;;;4987110;28;20196;-69
2023/08/02 08:11:29;;;;;;;11.50;3.40;;;22.70;99.90;;;;;;4987752;28;20259;-65
2023/08/02 08:13:56;;;;;;;8.20;3.20;;;22.70;99.90;;;;;;4975072;28;21395;-69
2023/08/02 08:16:22;;;;;;;10.00;4.15;;;22.70;99.90;;;;;;4959201;28;20196;-67
2023/08/02 08:18:48;;;;;;;4.22;2.92;;;22.60;99.90;;;;;;4975529;28;20182;-64
2023/08/02 08:21:14;;;;;;;6.93;3.85;;;22.60;99.90;;;;;;4969189;28;20214;-62
2023/08/02 08:23:40;;;;;;;11.73;4.70;;;22.60;99.90;;;;;;4971330;28;20228;-65
2023/08/02 08:26:11;;;;;;;4.65;2.13;;;22.60;99.90;;;;;;4968346;28;20186;-62
2023/08/02 08:28:37;;;;;;;2.55;1.70;;;22.60;99.90;;;;;;4968789;28;20182;-67
2023/08/02 08:31:04;;;;;;;3.55;2.03;;;22.70;99.90;;;;;;4978391;28;20788;-70
2023/08/02 08:33:31;;;;;;;5.68;2.55;;;22.70;99.90;;;;;;4947957;28;20190;-68
2023/08/02 08:35:57;;;;;;;3.42;1.85;;;22.80;99.90;;;;;;4966117;28;20186;-68
2023/08/02 08:38:23;;;;;;;2.65;1.60;;;22.80;99.90;;;;;;4948357;29;20646;-68
2023/08/02 08:40:53;;;;;;;6.43;2.38;;;22.80;99.90;;;;;;4968382;28;20190;-66
2023/08/02 08:43:24;;;;;;;6.05;3.30;;;22.80;99.90;;;;;;4982465;28;20190;-66
2023/08/02 08:45:52;;;;;;;2.65;1.50;;;22.80;99.90;;;;;;4980876;28;20247;-74
2023/08/02 08:48:18;;;;;;;3.25;1.40;;;22.80;99.90;;;;;;4967394;28;20227;-74
2023/08/02 08:50:46;;;;;;;2.05;1.30;;;22.90;99.90;;;;;;4953351;28;20194;-77
2023/08/02 08:53:22;;;;;;;2.03;1.30;;;23.00;99.90;;;;;;4965102;28;20273;-76
2023/08/02 08:55:49;;;;;;;2.03;1.42;;;23.00;99.90;;;;;;4962429;28;20325;-72
2023/08/02 08:58:16;;;;;;;4.18;1.55;;;23.20;99.90;;;;;;4971222;28;20198;-77
2023/08/02 09:00:46;;;;;;;2.65;1.60;;;23.20;99.90;;;;;;4965273;28;20205;-71
2023/08/02 09:03:12;;;;;;;2.22;1.52;;;23.30;99.90;;;;;;4974586;28;20186;-70
2023/08/02 09:05:40;;;;;;;2.05;1.35;;;23.40;99.90;;;;;;4943230;28;20236;-76
2023/08/02 09:08:06;;;;;;;3.08;1.63;;;23.40;99.90;;;;;;4938093;28;611378;-73
2023/08/02 09:10:33;;;;;;;2.30;1.40;;;23.40;99.90;;;;;;4969178;28;20681;-75
2023/08/02 09:12:59;;;;;;;3.28;1.55;;;23.50;99.90;;;;;;4975421;28;20701;-71
2023/08/02 09:15:25;;;;;;;6.05;1.40;;;23.50;99.90;;;;;;4966234;28;20367;-75
2023/08/02 09:17:55;;;;;;;2.70;1.27;;;23.50;99.90;;;;;;4988441;28;20649;-75
2023/08/02 09:20:25;;;;;;;2.80;1.40;;;23.50;99.90;;;;;;4966449;28;20181;-73
2023/08/02 09:22:51;;;;;;;2.45;1.30;;;23.60;99.90;;;;;;4986710;28;20849;-74
2023/08/02 09:25:25;;;;;;;5.35;1.27;;;23.70;99.90;;;;;;4987356;28;20190;-73
2023/08/02 09:27:53;;;;;;;1.77;1.35;;;23.70;99.90;;;;;;4974831;28;20580;-74
2023/08/02 09:30:25;;;;;;;2.50;1.30;;;23.70;99.90;;;;;;4969719;28;20192;-71
2023/08/02 09:33:08;;;;;;;3.30;2.00;;;23.80;99.90;;;;;;4969308;28;20185;-70
2023/08/02 09:35:51;;;;;;;1.95;1.30;;;23.80;99.90;;;;;;4967788;28;20185;-74
2023/08/02 09:38:17;;;;;;;2.75;1.33;;;23.90;99.90;;;;;;4974958;28;20215;-73
2023/08/02 09:40:47;;;;;;;2.80;1.30;;;23.90;99.90;;;;;;4973363;28;20186;-76
2023/08/02 09:43:16;;;;;;;2.22;1.30;;;23.90;99.90;;;;;;4973674;28;20701;-72
2023/08/02 09:45:43;;;;;;;2.97;1.38;;;24.00;99.90;;;;;;4968652;28;20193;-69
2023/08/02 09:48:09;;;;;;;2.47;1.38;;;23.90;99.90;;;;;;4964967;28;20186;-73
2023/08/02 09:50:58;;;;;;;5.72;1.40;;;24.00;99.90;;;;;;4972661;28;20197;-73
2023/08/02 09:53:25;;;;;;;3.22;1.48;;;24.00;99.90;;;;;;4973572;28;20678;-77
2023/08/02 09:55:55;;;;;;;4.03;1.30;;;24.00;99.90;;;;;;4947404;28;91156;-73
2023/08/02 09:58:22;;;;;;;2.08;1.15;;;24.10;99.90;;;;;;4982098;28;20233;-73
2023/08/02 10:00:49;;;;;;;2.50;1.40;;;24.10;99.90;;;;;;4957009;28;20191;-74
2023/08/02 10:03:16;;;;;;;2.67;1.58;;;24.20;99.90;;;;;;4966341;28;20198;-71
2023/08/02 10:05:44;;;;;;;3.40;1.30;;;24.20;99.90;;;;;;4967065;28;20673;-75
2023/08/02 10:08:12;;;;;;;2.47;1.50;;;24.20;99.90;;;;;;4964710;28;20217;-72
2023/08/02 10:10:42;;;;;;;2.25;1.38;;;24.20;99.90;;;;;;4966140;28;20194;-74
2023/08/02 10:13:12;;;;;;;3.53;1.33;;;24.20;99.90;;;;;;4974243;28;20186;-71
2023/08/02 10:15:40;;;;;;;2.97;1.58;;;24.20;99.90;;;;;;4988850;28;20180;-71
2023/08/02 10:18:06;;;;;;;1.90;1.23;;;24.20;99.90;;;;;;4988593;28;20190;-70
2023/08/02 10:20:33;;;;;;;2.63;1.40;;;24.20;99.90;;;;;;4951129;28;20276;-68
2023/08/02 10:23:04;;;;;;;2.33;1.30;;;24.20;99.90;;;;;;4972612;28;20213;-68
2023/08/02 10:25:35;;;;;;;3.50;1.88;;;24.20;99.90;;;;;;4964753;28;20583;-71
2023/08/02 10:28:02;;;;;;;2.85;1.67;;;24.20;99.90;;;;;;4973869;28;20185;-71
2023/08/02 10:30:30;;;;;;;4.43;2.40;;;24.20;99.90;;;;;;4962973;28;20187;-73
2023/08/02 10:33:13;;;;;;;7.95;2.40;;;24.20;99.90;;;;;;4966178;28;20673;-71
2023/08/02 10:35:58;;;;;;;6.03;2.55;;;24.20;99.90;;;;;;4962966;28;20670;-72
2023/08/02 10:38:39;;;;;;;7.88;2.47;;;24.10;99.90;;;;;;4961329;28;20219;-71
2023/08/02 10:41:11;;;;;;;5.82;2.38;;;24.10;99.90;;;;;;4966143;28;20746;-75
2023/08/02 10:43:58;;;;;;;7.13;2.20;;;24.10;99.90;;;;;;4972784;28;20216;-71
2023/08/02 10:46:32;;;;;;;4.13;2.22;;;24.20;99.90;;;;;;4968996;28;20196;-71
2023/08/02 10:49:10;;;;;;;5.10;2.05;;;24.20;99.90;;;;;;4971894;28;20193;-70
2023/08/02 10:51:37;;;;;;;5.22;1.92;;;24.20;99.90;;;;;;4966629;28;20190;-75
2023/08/02 10:54:13;;;;;;;3.28;1.85;;;24.20;99.90;;;;;;4971160;28;20218;-72
2023/08/02 10:56:51;;;;;;;3.13;1.77;;;24.20;99.90;;;;;;4973514;28;20185;-71
2023/08/02 10:59:18;;;;;;;2.88;1.63;;;24.20;99.90;;;;;;4972273;28;20187;-71
2023/08/02 11:02:08;;;;;;;3.50;1.80;;;24.30;99.90;;;;;;4966716;28;20253;-72
2023/08/02 11:04:37;;;;;;;3.17;1.48;;;24.30;99.90;;;;;;4964231;28;20178;-72
2023/08/02 11:07:18;;;;;;;3.42;1.52;;;24.30;99.90;;;;;;4971765;28;20653;-71
2023/08/02 11:09:53;;;;;;;2.55;1.50;;;24.30;99.90;;;;;;4973417;28;20277;-70
2023/08/02 11:12:21;;;;;;;4.85;1.88;;;24.30;99.90;;;;;;4958616;28;20217;-70
2023/08/02 11:14:50;;;;;;;3.33;1.40;;;24.30;99.90;;;;;;4967209;28;20278;-70
2023/08/02 11:17:17;;;;;;;1.80;1.20;;;24.40;99.90;;;;;;4956158;28;20498;-71
2023/08/02 11:19:51;;;;;;;2.97;1.40;;;24.40;99.90;;;;;;4972012;28;20252;-71
2023/08/02 11:22:18;;;;;;;4.28;1.35;;;24.40;99.90;;;;;;4972881;28;20218;-71
2023/08/02 11:24:45;;;;;;;1.50;1.20;;;24.40;99.90;;;;;;4979914;28;20194;-70
2023/08/02 11:27:21;;;;;;;1.50;1.17;;;24.40;99.90;;;;;;4972560;28;20269;-71
2023/08/02 11:30:01;;;;;;;1.60;1.23;;;24.40;99.90;;;;;;4972399;28;20538;-71
2023/08/02 11:32:28;;;;;;;2.25;1.20;;;24.40;99.90;;;;;;4973381;28;20224;-70
2023/08/02 11:34:54;;;;;;;2.95;1.30;;;24.40;99.90;;;;;;4967885;28;20197;-74
2023/08/02 11:37:21;;;;;;;1.55;1.00;;;24.30;99.90;;;;;;4969715;28;20685;-71
2023/08/02 11:39:55;;;;;;;2.38;1.08;;;24.30;99.90;;;;;;4972913;28;20191;-71
2023/08/02 11:42:21;;;;;;;2.30;1.17;;;24.30;99.90;;;;;;4971661;28;20256;-70
2023/08/02 11:44:47;;;;;;;1.45;1.02;;;24.30;99.90;;;;;;4971321;28;20190;-71
2023/08/02 11:47:13;;;;;;;1.73;1.08;;;24.40;99.90;;;;;;4960226;28;20186;-70
2023/08/02 11:49:57;;;;;;;1.50;1.00;;;24.40;99.90;;;;;;4965381;28;20183;-74
2023/08/02 11:52:33;;;;;;;1.70;1.10;;;24.30;99.90;;;;;;4973023;28;20181;-71
2023/08/02 11:55:00;;;;;;;1.63;1.00;;;24.40;99.90;;;;;;4991505;28;20196;-71
2023/08/02 11:57:26;;;;;;;1.45;1.10;;;24.30;99.90;;;;;;4969983;28;20291;-71
2023/08/02 11:59:56;;;;;;;1.25;0.75;;;24.30;99.90;;;;;;4972435;28;20232;-71
2023/08/02 12:02:30;;;;;;;1.70;0.93;;;24.30;99.90;;;;;;4975651;28;20303;-72
2023/08/02 12:04:57;;;;;;;1.88;1.10;;;24.30;99.90;;;;;;4991149;28;20273;-72
2023/08/02 12:07:30;;;;;;;3.47;1.10;;;24.30;99.90;;;;;;4973856;28;20186;-74
2023/08/02 12:09:57;;;;;;;2.33;1.20;;;24.30;99.90;;;;;;4967809;28;20237;-71
2023/08/02 12:12:31;;;;;;;2.47;1.20;;;24.30;99.90;;;;;;4973803;28;20190;-68
2023/08/02 12:14:57;;;;;;;1.77;1.13;;;24.20;99.90;;;;;;4983892;28;20190;-68
2023/08/02 12:17:24;;;;;;;8.48;6.30;;;24.00;99.90;;;;;;4975059;28;20216;-68
2023/08/02 12:19:52;;;;;;;1.98;1.20;;;23.80;99.90;;;;;;4967898;28;20182;-69
2023/08/02 12:22:19;;;;;;;3.20;1.10;;;23.70;99.90;;;;;;4975991;28;20260;-68
2023/08/02 12:25:01;;;;;;;2.50;0.98;;;23.60;99.90;;;;;;4991097;28;20266;-70
2023/08/02 12:27:27;;;;;;;1.48;0.98;;;23.60;99.90;;;;;;4990926;28;20233;-69
2023/08/02 12:30:10;;;;;;;1.17;0.93;;;23.50;99.90;;;;;;4968588;28;20190;-67
2023/08/02 12:32:36;;;;;;;2.17;1.00;;;23.50;99.90;;;;;;4974772;28;20181;-69
2023/08/02 12:35:07;;;;;;;2.45;0.70;;;23.50;99.90;;;;;;4968159;28;20254;-70
2023/08/02 12:37:33;;;;;;;2.63;0.80;;;23.60;99.90;;;;;;4969536;28;20190;-71
2023/08/02 12:39:59;;;;;;;1.23;0.80;;;23.70;99.90;;;;;;4962358;28;20190;-68
2023/08/02 12:42:25;;;;;;;1.77;1.00;;;23.80;99.90;;;;;;4957952;28;20226;-71
2023/08/02 12:44:51;;;;;;;1.60;0.95;;;23.90;99.90;;;;;;4962027;28;20221;-66
2023/08/02 12:47:18;;;;;;;0.82;0.75;;;24.00;99.90;;;;;;4974589;28;20190;-70
2023/08/02 12:49:43;;;;;;;3.20;2.20;;;24.10;99.90;;;;;;4974267;28;20186;-69
2023/08/02 12:52:09;;;;;;;2.08;1.10;;;24.20;99.90;;;;;;4974159;28;20189;-68
2023/08/02 12:54:35;;;;;;;3.38;1.40;;;24.30;99.90;;;;;;4975259;28;20233;-68
2023/08/02 12:57:01;;;;;;;1.45;1.00;;;24.50;99.90;;;;;;4962548;28;20395;-70
2023/08/02 12:59:27;;;;;;;1.60;1.10;;;24.50;99.90;;;;;;4975222;28;20586;-69
2023/08/02 13:01:53;;;;;;;1.10;1.00;;;24.60;99.90;;;;;;4981890;28;20246;-69
2023/08/02 13:04:19;;;;;;;1.70;1.20;;;24.70;99.90;;;;;;4973480;28;20190;-69
2023/08/02 13:06:45;;;;;;;5.22;1.20;;;24.90;99.90;;;;;;4975190;28;20245;-67